GW1748 Weather Reports


Display with metric or nautical units.
time (UTC)temp
F
wind
direction
speed
MPH
gust
MPH
rain 1hr
in
rain 24hr
in
rain mn
in
humidity
%
barometer
mb
20240723171531 71 0 0.0 3.0 0.01 0.47 0.47 83 1017.9
20240723170031 71 0 0.0 1.0 0.01 0.47 0.47 85 1017.8
20240723164532 70 0 0.0 3.0 0.01 0.47 0.47 84 1017.9
20240723163028 70 0 0.0 2.0 0.01 0.47 0.47 86 1017.8
20240723161538 69 214 0.0 2.0 0.00 0.46 0.46 86 1017.7
20240723160033 70 0 0.0 3.0 0.00 0.46 0.46 85 1017.8
20240723154543 70 348 0.0 3.0 0.00 0.46 0.46 86 1017.7
20240723153040 70 0 0.0 3.0 0.00 0.46 0.46 85 1017.6
20240723151545 70 0 0.0 4.0 0.00 0.46 0.46 86 1017.6
20240723150029 70 80 0.0 3.0 0.00 0.46 0.46 87 1017.5
20240723144542 70 0 0.0 3.0 0.02 0.46 0.46 87 1017.6
20240723143041 70 0 0.0 3.0 0.02 0.46 0.46 87 1017.5
20240723141531 69 0 0.0 1.0 0.03 0.46 0.46 87 1017.4
20240723140035 69 0 0.0 4.0 0.02 0.45 0.45 87 1017.3
20240723134546 69 0 0.0 2.0 0.02 0.44 0.44 87 1017.2
20240723133046 69 0 0.0 2.0 0.03 0.44 0.44 87 1017.0
20240723131539 69 0 0.0 2.0 0.02 0.43 0.43 87 1016.9
20240723130033 69 128 0.0 3.0 0.02 0.43 0.43 87 1016.8
20240723124534 68 0 0.0 0.0 0.02 0.42 0.42 87 1016.8
20240723123035 68 0 0.0 0.0 0.14 0.41 0.41 87 1016.7
20240723121535 68 0 0.0 0.0 0.37 0.41 0.41 87 1016.6
20240723120029 68 0 0.0 0.0 0.41 0.41 0.41 87 1016.3
20240723114531 68 0 0.0 0.0 0.40 0.40 0.40 87 1016.2
20240723113034 68 0 0.0 4.0 0.26 0.26 0.26 87 1016.3
20240723111531 68 0 0.0 0.0 0.03 0.03 0.03 87 1016.2
20240723110033 68 0 0.0 0.0 0.00 0.00 0.00 87 1015.9
20240723104531 67 0 0.0 0.0 0.00 0.00 0.00 87 1015.8
20240723103040 67 0 0.0 0.0 0.00 0.00 0.00 87 1015.7
20240723101533 67 0 0.0 0.0 0.00 0.00 0.00 87 1015.8
20240723100036 67 0 0.0 0.0 0.00 0.00 0.00 87 1015.8
20240723094529 67 0 0.0 0.0 0.00 0.00 0.00 86 1015.8
20240723093032 67 0 0.0 0.0 0.00 0.00 0.00 86 1015.7
20240723091529 67 0 0.0 0.0 0.00 0.00 0.00 86 1015.7
20240723090029 67 0 0.0 0.0 0.00 0.00 0.00 86 1015.6
20240723084530 67 0 0.0 0.0 0.00 0.00 0.00 86 1015.6
20240723083026 67 0 0.0 0.0 0.00 0.00 0.00 86 1015.5
20240723081530 67 0 0.0 0.0 0.00 0.00 0.00 86 1015.4
20240723080034 67 0 0.0 0.0 0.00 0.00 0.00 86 1015.3
20240723074534 67 0 0.0 0.0 0.00 0.00 0.00 85 1015.3
20240723073031 67 0 0.0 0.0 0.00 0.00 0.00 85 1015.3
20240723071533 67 0 0.0 0.0 0.00 0.00 0.00 85 1015.4
20240723070036 67 0 0.0 0.0 0.00 0.00 0.00 85 1015.5
20240723064532 67 0 0.0 0.0 0.00 0.00 0.00 85 1015.6
20240723063033 67 0 0.0 0.0 0.00 0.00 0.00 84 1015.7
20240723061540 67 0 0.0 0.0 0.00 0.00 0.00 83 1015.8
20240723060035 67 0 0.0 0.0 0.00 0.00 0.00 82 1015.8
20240723054527 67 0 0.0 0.0 0.00 0.00 0.00 81 1015.9
20240723053036 67 0 0.0 0.0 0.00 0.00 0.00 80 1015.9
20240723051538 67 0 0.0 0.0 0.00 0.00 0.00 79 1016.0
20240723050038 68 0 0.0 0.0 0.00 0.00 0.00 77 1016.1
20240723044530 68 0 0.0 0.0 0.00 0.00 0.00 77 1016.1
20240723043031 68 0 0.0 0.0 0.00 0.00 0.00 77 1016.1
20240723041527 68 0 0.0 0.0 0.00 0.00 0.00 76 1016.5
20240723040041 68 0 0.0 0.0 0.00 0.00 0.00 76 1016.5
20240723034531 68 0 0.0 0.0 0.00 0.00 0.00 75 1016.5
20240723033035 68 0 0.0 0.0 0.00 0.00 0.00 75 1016.6
20240723031526 68 0 0.0 0.0 0.00 0.00 0.00 75 1016.7
20240723030028 68 0 0.0 0.0 0.00 0.00 0.00 74 1016.7
20240723024527 68 0 0.0 0.0 0.00 0.00 0.00 73 1016.7
20240723023027 68 0 0.0 0.0 0.00 0.00 0.00 73 1016.7
20240723021544 69 0 0.0 0.0 0.00 0.00 0.00 73 1016.6
20240723020034 69 0 0.0 0.0 0.00 0.00 0.00 73 1016.6
20240723014529 69 0 0.0 0.0 0.00 0.00 0.00 72 1016.6
20240723013027 70 0 0.0 0.0 0.00 0.00 0.00 71 1016.5
20240723011545 70 0 0.0 0.0 0.00 0.00 0.00 71 1016.4
20240723010033 71 0 0.0 0.0 0.00 0.00 0.00 70 1016.3
20240723004532 71 0 0.0 0.0 0.00 0.00 0.00 69 1016.1
20240723003027 72 0 0.0 0.0 0.00 0.00 0.00 69 1015.9
20240723001527 73 0 0.0 0.0 0.00 0.00 0.00 67 1015.9
20240723000043 74 0 0.0 0.0 0.00 0.00 0.00 65 1015.8
20240722234530 76 0 0.0 0.0 0.00 0.00 0.00 64 1015.5
20240722233035 77 0 0.0 0.0 0.00 0.00 0.00 63 1015.6
20240722231527 78 0 0.0 0.0 0.00 0.00 0.00 58 1015.5
20240722230026 78 0 0.0 4.0 0.00 0.00 0.00 57 1015.5
20240722224542 79 0 0.0 0.0 0.00 0.00 0.00 56 1015.6
20240722223034 80 0 0.0 0.0 0.00 0.00 0.00 54 1015.6
20240722221530 80 0 0.0 4.0 0.00 0.00 0.00 58 1015.7
20240722220036 81 0 0.0 4.0 0.00 0.00 0.00 52 1015.7
20240722214548 82 0 0.0 3.0 0.00 0.00 0.00 55 1015.6
20240722213044 82 234 0.0 3.0 0.00 0.00 0.00 50 1015.7
20240722211528 82 0 0.0 3.0 0.00 0.00 0.00 46 1015.8
20240722210032 84 0 0.0 3.0 0.00 0.00 0.00 52 1015.9
20240722204535 85 0 0.0 3.0 0.00 0.00 0.00 45 1015.9
20240722203034 85 0 0.0 3.0 0.00 0.00 0.00 47 1016.0
20240722201526 83 0 0.0 3.0 0.00 0.00 0.00 49 1016.0
20240722200027 84 271 0.0 5.0 0.00 0.00 0.00 50 1016.0
20240722194532 84 264 0.0 4.0 0.00 0.00 0.00 43 1016.0
20240722193025 86 217 2.0 7.0 0.00 0.00 0.00 40 1016.2
20240722191526 86 0 0.0 2.0 0.00 0.00 0.00 40 1016.3
20240722190034 84 0 0.0 2.0 0.00 0.00 0.00 48 1016.4
20240722184532 83 0 0.0 2.0 0.00 0.00 0.00 44 1016.5
20240722183031 84 186 0.0 6.0 0.00 0.00 0.00 43 1016.6
20240722181531 86 234 3.0 5.0 0.00 0.00 0.00 35 1016.7
20240722180030 85 0 0.0 3.0 0.00 0.00 0.00 35 1016.9
20240722174532 84 0 0.0 6.0 0.00 0.00 0.00 38 1016.9
20240722173030 84 0 0.0 4.0 0.00 0.00 0.00 36 1017.3